PKWA/KWA METAR and TAF weather

Enter ICAO airport designator
Station Type Date Time Source
PKWA METAR 2021/02/24 17:20 UTC NOAA

PKWA 241720Z AUTO 08017KT 10SM SCT022 SCT029 SCT047 27/24 A2973 RMK AO2 T02670242


Station Type Date Time Source
PKWA Decoded METAR 2021/02/24 17:20 UTC NOAA

Kwajalein, Bucholz AAF, Kwajalein KMR ATOL Airport, Marshall Islands (PKWA) 08-43N 167-44E 2M
Feb 24, 2021 - 12:20 PM EST / 2021.02.24 1720 UTC
Wind: from the E (080 degrees) at 20 MPH (17 KT):0
Visibility: 10 mile(s):0
Sky conditions: partly cloudy
Temperature: 80.1 F (26.7 C)
Dew Point: 75.6 F (24.2 C)
Relative Humidity: 86%
Pressure (altimeter): 29.73 in. Hg (1006 hPa)
ob: PKWA 241720Z AUTO 08017KT 10SM SCT022 SCT029 SCT047 27/24 A2973 RMK AO2 T02670242
cycle: 17

Station Type Date Time Source
PKWA TAF 2021/02/24 18:33 UTC NOAA

TAF PKWA 241727Z 2418/2518 08014KT P6SM VCSH SCT027 SCT110

Example: see airport list